createdAt,value
2023-05-19T00:00:12.651Z,99723.84
2023-05-19T00:02:39.172Z,99719.25
2023-05-19T00:05:05.632Z,99710.19
2023-05-19T00:07:32.135Z,99712.41
2023-05-19T00:09:58.631Z,99705.34
2023-05-19T00:12:25.322Z,99702.31
2023-05-19T00:14:51.769Z,99703.31
2023-05-19T00:17:18.303Z,99700.22
2023-05-19T00:19:44.696Z,99701.88
2023-05-19T00:22:11.112Z,99712.03
2023-05-19T00:24:37.617Z,99710.22
2023-05-19T00:27:04.006Z,99705.88
2023-05-19T00:29:30.378Z,99705.91
2023-05-19T00:31:56.872Z,99703.00
2023-05-19T00:34:23.286Z,99706.88
2023-05-19T00:36:49.732Z,99694.38
2023-05-19T00:39:16.291Z,99697.66
2023-05-19T00:41:42.746Z,99698.72
2023-05-19T00:44:09.163Z,99694.81
2023-05-19T00:46:35.725Z,99701.00
2023-05-19T00:49:02.192Z,99697.25
2023-05-19T00:51:28.821Z,99690.41
2023-05-19T00:53:55.591Z,99696.75
2023-05-19T00:56:21.997Z,99693.09
2023-05-19T00:58:48.368Z,99688.69
2023-05-19T01:01:14.920Z,99700.38
2023-05-19T01:03:41.497Z,99686.91
2023-05-19T01:06:08.204Z,99683.78
2023-05-19T01:08:34.742Z,99680.84
2023-05-19T01:11:01.089Z,99687.97
2023-05-19T01:13:27.586Z,99680.31
2023-05-19T01:15:54.000Z,99679.81
2023-05-19T01:18:20.798Z,99678.88
2023-05-19T01:20:47.213Z,99679.44
2023-05-19T01:23:13.731Z,99681.00
2023-05-19T01:25:40.624Z,99683.34
2023-05-19T01:28:07.028Z,99677.22
2023-05-19T01:30:33.557Z,99678.44
2023-05-19T01:33:00.377Z,99675.31
2023-05-19T01:35:26.844Z,99674.81
2023-05-19T01:37:53.285Z,99680.50
2023-05-19T01:40:19.716Z,99673.75
2023-05-19T01:42:46.182Z,99679.59
2023-05-19T01:45:12.649Z,99678.22
2023-05-19T01:47:39.111Z,99673.25
2023-05-19T01:50:05.680Z,99662.72
2023-05-19T01:52:32.087Z,99670.75
2023-05-19T01:54:58.643Z,99665.06
2023-05-19T01:57:25.124Z,99665.75
2023-05-19T01:59:51.515Z,99667.53
2023-05-19T02:02:17.958Z,99669.78
2023-05-19T02:04:44.578Z,99680.78
2023-05-19T02:07:11.109Z,99679.38
2023-05-19T02:09:37.524Z,99674.81
2023-05-19T02:12:04.037Z,99676.72
2023-05-19T02:14:30.488Z,99668.63
2023-05-19T02:16:56.912Z,99665.13
2023-05-19T02:19:23.473Z,99661.94
2023-05-19T02:21:50.100Z,99662.16
2023-05-19T02:24:17.650Z,99662.34
2023-05-19T02:26:44.080Z,99661.00
2023-05-19T02:29:10.664Z,99662.34
2023-05-19T02:31:37.123Z,99666.91
2023-05-19T02:34:03.668Z,99664.72
2023-05-19T02:36:30.019Z,99667.16
2023-05-19T02:38:56.428Z,99654.03
2023-05-19T02:41:23.086Z,99657.69
2023-05-19T02:43:49.441Z,99654.13
2023-05-19T02:46:15.908Z,99652.34
2023-05-19T02:48:42.479Z,99657.38
2023-05-19T02:51:09.214Z,99651.31
2023-05-19T02:53:35.823Z,99653.75
2023-05-19T02:56:02.610Z,99655.75
2023-05-19T02:58:29.015Z,99643.28
2023-05-19T03:00:55.349Z,99657.22
2023-05-19T03:03:21.840Z,99651.38
2023-05-19T03:05:48.387Z,99655.66
2023-05-19T03:08:14.791Z,99652.41
2023-05-19T03:10:41.172Z,99651.56
2023-05-19T03:13:07.657Z,99657.03
2023-05-19T03:15:35.120Z,99659.47
2023-05-19T03:18:01.861Z,99669.59
2023-05-19T03:20:28.341Z,99667.72
2023-05-19T03:22:54.953Z,99665.28
2023-05-19T03:25:21.550Z,99669.84
2023-05-19T03:27:47.912Z,99666.84
2023-05-19T03:30:15.314Z,99670.91
2023-05-19T03:32:42.186Z,99674.16
2023-05-19T03:35:08.692Z,99671.56
2023-05-19T03:37:35.175Z,99673.25
2023-05-19T03:40:01.659Z,99683.28
2023-05-19T03:42:28.064Z,99676.03
2023-05-19T03:44:54.537Z,99678.78
2023-05-19T03:47:21.588Z,99672.03
2023-05-19T03:49:47.983Z,99673.63
2023-05-19T03:52:14.399Z,99674.81
2023-05-19T03:54:40.867Z,99677.72
2023-05-19T03:57:07.553Z,99676.44
2023-05-19T03:59:33.956Z,99674.09
2023-05-19T04:02:00.452Z,99680.56
2023-05-19T04:04:27.059Z,99681.84
2023-05-19T04:06:53.473Z,99678.00
2023-05-19T04:09:19.861Z,99683.13
2023-05-19T04:11:46.240Z,99690.69
2023-05-19T04:14:12.652Z,99683.78
2023-05-19T04:16:40.169Z,99682.06
2023-05-19T04:19:06.602Z,99690.47
2023-05-19T04:21:33.317Z,99685.41
2023-05-19T04:23:59.862Z,99694.88
2023-05-19T04:26:26.329Z,99690.53
2023-05-19T04:28:52.858Z,99689.34
2023-05-19T04:31:19.393Z,99684.22
2023-05-19T04:33:45.805Z,99687.00
2023-05-19T04:36:12.222Z,99683.94
2023-05-19T04:38:38.702Z,99684.56
2023-05-19T04:41:05.265Z,99687.34
2023-05-19T04:43:31.739Z,99683.13
2023-05-19T04:45:58.223Z,99679.16
2023-05-19T04:48:24.617Z,99677.75
2023-05-19T04:50:51.243Z,99675.47
2023-05-19T04:53:17.706Z,99678.44
2023-05-19T04:55:44.167Z,99685.56
2023-05-19T04:58:10.590Z,99681.38
2023-05-19T05:00:37.043Z,99675.19
2023-05-19T05:03:03.551Z,99678.69
2023-05-19T05:05:30.094Z,99676.81
2023-05-19T05:07:56.555Z,99683.72
2023-05-19T05:10:23.005Z,99685.41
2023-05-19T05:12:51.450Z,99696.31
2023-05-19T05:15:17.854Z,99683.13
2023-05-19T05:17:44.490Z,99686.34
2023-05-19T05:20:10.998Z,99689.19
2023-05-19T05:22:37.481Z,99690.91
2023-05-19T05:25:04.878Z,99684.44
2023-05-19T05:27:31.390Z,99687.84
2023-05-19T05:29:59.275Z,99683.72
2023-05-19T05:32:25.901Z,99690.28
2023-05-19T05:34:52.712Z,99690.84
2023-05-19T05:37:19.512Z,99693.03
2023-05-19T05:39:48.171Z,99691.25
2023-05-19T05:42:14.581Z,99702.75
2023-05-19T05:44:41.460Z,99694.22
2023-05-19T05:47:08.039Z,99695.28
2023-05-19T05:49:34.479Z,99691.09
2023-05-19T05:52:06.094Z,99690.38
2023-05-19T05:54:33.092Z,99695.97
2023-05-19T05:56:59.529Z,99701.31
2023-05-19T05:59:26.005Z,99701.34
2023-05-19T06:01:52.733Z,99707.72
2023-05-19T06:04:19.185Z,99703.25
2023-05-19T06:06:45.818Z,99705.59
2023-05-19T06:09:12.506Z,99698.91
2023-05-19T06:11:39.041Z,99708.59
2023-05-19T06:14:05.690Z,99702.75
2023-05-19T06:16:32.237Z,99704.63
2023-05-19T06:18:59.118Z,99703.41
2023-05-19T06:21:25.673Z,99702.88
2023-05-19T06:23:52.106Z,99706.50
2023-05-19T06:26:18.555Z,99703.88
2023-05-19T06:28:45.179Z,99704.41
2023-05-19T06:31:11.922Z,99708.69
2023-05-19T06:33:38.338Z,99709.22
2023-05-19T06:36:04.871Z,99707.44
2023-05-19T06:38:31.664Z,99702.50
2023-05-19T06:40:58.237Z,99707.13
2023-05-19T06:43:24.700Z,99703.25
2023-05-19T06:45:51.093Z,99709.88
2023-05-19T06:48:17.539Z,99710.78
2023-05-19T06:50:44.200Z,99705.03
2023-05-19T06:53:10.664Z,99703.53
2023-05-19T06:55:44.104Z,99698.47
2023-05-19T06:58:21.193Z,99702.75
2023-05-19T07:00:47.614Z,99715.75
2023-05-19T07:03:14.207Z,99704.28
2023-05-19T07:05:40.855Z,99710.41
2023-05-19T07:08:07.547Z,99716.88
2023-05-19T07:10:36.278Z,99712.97
2023-05-19T07:13:02.919Z,99714.84
2023-05-19T07:15:29.352Z,99714.84
2023-05-19T07:17:55.925Z,99712.13
2023-05-19T07:20:22.394Z,99716.06
2023-05-19T07:22:50.750Z,99717.75
2023-05-19T07:25:17.096Z,99721.34
2023-05-19T07:27:43.570Z,99723.44
2023-05-19T07:30:10.261Z,99732.13
2023-05-19T07:32:36.654Z,99734.84
2023-05-19T07:35:03.243Z,99719.84
2023-05-19T07:37:29.757Z,99728.75
2023-05-19T07:39:56.799Z,99727.03
2023-05-19T07:42:23.259Z,99727.88
2023-05-19T07:44:49.676Z,99715.59
2023-05-19T07:47:18.130Z,99711.84
2023-05-19T07:49:46.595Z,99708.66
2023-05-19T07:52:12.993Z,99708.66
2023-05-19T07:54:39.423Z,99721.91
2023-05-19T07:57:08.275Z,99718.84
2023-05-19T07:59:34.718Z,99721.84
2023-05-19T08:02:01.223Z,99716.34
2023-05-19T08:04:27.714Z,99722.56
2023-05-19T08:06:54.326Z,99730.88
2023-05-19T08:09:21.844Z,99719.66
2023-05-19T08:11:48.333Z,99722.75
2023-05-19T08:14:14.765Z,99729.09
2023-05-19T08:16:41.586Z,99725.50
2023-05-19T08:19:08.175Z,99729.91
2023-05-19T08:21:34.619Z,99726.06
2023-05-19T08:24:02.095Z,99722.66
2023-05-19T08:26:28.508Z,99717.44
2023-05-19T08:28:54.899Z,99709.34
2023-05-19T08:31:21.832Z,99719.75
2023-05-19T08:33:48.262Z,99706.25
2023-05-19T08:36:15.172Z,99718.50
2023-05-19T08:38:41.679Z,99712.06
2023-05-19T08:41:08.170Z,99707.03
2023-05-19T08:43:34.828Z,99714.25
2023-05-19T08:46:01.259Z,99703.94
2023-05-19T08:48:29.721Z,99705.72
2023-05-19T08:50:56.155Z,99701.38
2023-05-19T08:53:32.356Z,99699.38
2023-05-19T08:56:01.565Z,99700.00
2023-05-19T08:58:28.826Z,99699.22
2023-05-19T09:00:55.465Z,99693.53
2023-05-19T09:03:24.084Z,99699.31
2023-05-19T09:05:50.859Z,99691.63
2023-05-19T09:08:17.281Z,99691.44
2023-05-19T09:10:43.857Z,99680.03
2023-05-19T09:13:12.304Z,99688.28
2023-05-19T09:15:39.100Z,99682.22
2023-05-19T09:18:05.624Z,99691.03
2023-05-19T09:20:32.165Z,99691.88
2023-05-19T09:22:58.719Z,99688.28
2023-05-19T09:25:27.459Z,99681.06
2023-05-19T09:27:54.017Z,99679.66
2023-05-19T09:30:20.409Z,99684.09
2023-05-19T09:32:49.055Z,99676.88
2023-05-19T09:35:15.733Z,99672.41
2023-05-19T09:37:42.464Z,99674.66
2023-05-19T09:40:10.050Z,99680.50
2023-05-19T09:42:37.720Z,99680.81
2023-05-19T09:45:04.407Z,99689.44
2023-05-19T09:47:31.223Z,99672.47
2023-05-19T09:49:57.690Z,99665.25
2023-05-19T09:52:24.110Z,99666.53
2023-05-19T09:54:50.522Z,99663.78
2023-05-19T09:57:16.991Z,99666.78
2023-05-19T09:59:43.898Z,99664.97
2023-05-19T10:02:10.371Z,99663.13
2023-05-19T10:04:36.937Z,99664.09
2023-05-19T10:07:03.434Z,99656.66
2023-05-19T10:09:29.953Z,99647.13
2023-05-19T10:11:56.851Z,99653.94
2023-05-19T10:14:23.380Z,99652.88
2023-05-19T10:16:50.084Z,99662.22
2023-05-19T10:19:16.674Z,99664.75
2023-05-19T10:21:43.379Z,99660.50
2023-05-19T10:24:11.577Z,99656.16
2023-05-19T10:26:39.268Z,99650.88
2023-05-19T10:29:05.792Z,99650.16
2023-05-19T10:31:34.713Z,99650.38
2023-05-19T10:34:03.894Z,99646.00
2023-05-19T10:36:30.322Z,99642.06
2023-05-19T10:38:56.852Z,99633.97
2023-05-19T10:41:25.634Z,99639.06
2023-05-19T10:43:52.065Z,99636.97
2023-05-19T10:46:18.525Z,99637.91
2023-05-19T10:48:45.222Z,99625.66
2023-05-19T10:51:11.705Z,99622.34
2023-05-19T10:53:38.250Z,99632.88
2023-05-19T10:56:04.761Z,99621.22
2023-05-19T10:58:31.195Z,99620.53
2023-05-19T11:00:57.672Z,99618.50
2023-05-19T11:03:24.519Z,99624.13
2023-05-19T11:05:51.066Z,99621.47
2023-05-19T11:08:17.455Z,99623.50
2023-05-19T11:10:43.927Z,99622.63
2023-05-19T11:13:10.401Z,99616.00
2023-05-19T11:15:36.972Z,99616.28
2023-05-19T11:18:03.524Z,99618.06
2023-05-19T11:20:30.973Z,99609.00
2023-05-19T11:22:57.457Z,99615.06
2023-05-19T11:25:23.846Z,99616.53
2023-05-19T11:27:50.369Z,99619.44
2023-05-19T11:30:16.850Z,99616.28
2023-05-19T11:32:43.340Z,99617.53
2023-05-19T11:35:09.768Z,99614.19
2023-05-19T11:37:36.213Z,99609.13
2023-05-19T11:40:04.698Z,99605.28
2023-05-19T11:42:31.236Z,99608.19
2023-05-19T11:44:58.592Z,99608.72
2023-05-19T11:47:25.274Z,99606.56
2023-05-19T11:49:51.930Z,99602.47
2023-05-19T11:52:18.443Z,99611.19
2023-05-19T11:54:44.951Z,99603.59
2023-05-19T11:57:11.423Z,99598.84
2023-05-19T11:59:38.060Z,99604.16
2023-05-19T12:02:04.486Z,99602.16
2023-05-19T12:04:30.959Z,99596.34
2023-05-19T12:06:57.678Z,99591.34
2023-05-19T12:09:24.130Z,99602.34
2023-05-19T12:11:50.558Z,99602.84
2023-05-19T12:14:16.961Z,99597.19
2023-05-19T12:16:43.822Z,99597.25
2023-05-19T12:19:10.396Z,99595.69
2023-05-19T12:21:37.333Z,99600.66
2023-05-19T12:24:03.831Z,99594.22
2023-05-19T12:26:30.407Z,99590.34
2023-05-19T12:28:56.888Z,99587.69
2023-05-19T12:31:23.669Z,99594.63
2023-05-19T12:33:52.127Z,99592.66
2023-05-19T12:36:18.656Z,99593.00
2023-05-19T12:38:45.116Z,99581.16
2023-05-19T12:41:11.734Z,99589.91
2023-05-19T12:43:38.185Z,99587.50
2023-05-19T12:46:04.661Z,99590.88
2023-05-19T12:48:31.980Z,99602.28
2023-05-19T12:50:58.386Z,99590.66
2023-05-19T12:53:25.038Z,99583.84
2023-05-19T12:55:51.486Z,99574.88
2023-05-19T12:58:18.627Z,99576.22
2023-05-19T13:00:45.339Z,99578.16
2023-05-19T13:03:12.133Z,99575.84
2023-05-19T13:05:38.650Z,99570.66
2023-05-19T13:08:06.364Z,99567.84
2023-05-19T13:10:33.209Z,99569.81
2023-05-19T13:12:59.895Z,99576.34
2023-05-19T13:15:26.589Z,99573.31
2023-05-19T13:17:53.042Z,99562.47
2023-05-19T13:20:19.612Z,99560.44
2023-05-19T13:22:48.152Z,99566.03
2023-05-19T13:25:14.651Z,99559.56
2023-05-19T13:27:41.087Z,99562.34
2023-05-19T13:30:07.517Z,99549.44
2023-05-19T13:32:36.334Z,99553.38
2023-05-19T13:35:02.782Z,99551.16
2023-05-19T13:37:29.271Z,99542.63
2023-05-19T13:39:55.895Z,99545.84
2023-05-19T13:42:23.050Z,99534.53
2023-05-19T13:44:49.408Z,99536.44
2023-05-19T13:47:15.931Z,99538.53
2023-05-19T13:49:42.516Z,99536.25
2023-05-19T13:52:09.032Z,99534.28
2023-05-19T13:54:35.414Z,99530.84
2023-05-19T13:57:02.224Z,99535.06
2023-05-19T13:59:28.639Z,99532.09
2023-05-19T14:01:55.227Z,99533.50
2023-05-19T14:04:21.846Z,99519.81
2023-05-19T14:06:48.452Z,99524.88
2023-05-19T14:09:16.084Z,99514.53
2023-05-19T14:11:42.581Z,99524.38
2023-05-19T14:14:11.104Z,99517.69
2023-05-19T14:16:38.483Z,99506.16
2023-05-19T14:19:05.040Z,99510.34
2023-05-19T14:21:31.659Z,99518.50
2023-05-19T14:23:58.169Z,99507.69
2023-05-19T14:26:24.708Z,99502.78
2023-05-19T14:28:51.130Z,99505.72
2023-05-19T14:31:17.575Z,99514.19
2023-05-19T14:33:44.136Z,99503.34
2023-05-19T14:36:10.708Z,99509.81
2023-05-19T14:38:38.084Z,99518.66
2023-05-19T14:41:04.493Z,99515.78
2023-05-19T14:43:30.998Z,99513.13
2023-05-19T14:45:57.399Z,99510.44
2023-05-19T14:48:23.806Z,99520.28
2023-05-19T14:50:51.125Z,99515.22
2023-05-19T14:53:17.576Z,99513.25
2023-05-19T14:55:44.038Z,99515.69
2023-05-19T14:58:23.704Z,99517.25
2023-05-19T15:00:54.493Z,99515.97
2023-05-19T15:03:21.230Z,99515.84
2023-05-19T15:05:48.184Z,99508.50
2023-05-19T15:08:14.621Z,99512.91
2023-05-19T15:10:41.296Z,99506.00
2023-05-19T15:13:07.814Z,99510.75
2023-05-19T15:15:34.258Z,99514.69
2023-05-19T15:18:00.924Z,99517.09
2023-05-19T15:20:29.425Z,99513.16
2023-05-19T15:22:56.019Z,99513.69
2023-05-19T15:25:22.521Z,99517.34
2023-05-19T15:27:49.150Z,99520.34
2023-05-19T15:30:16.124Z,99510.91
2023-05-19T15:32:42.572Z,99526.41
2023-05-19T15:35:09.056Z,99524.72
2023-05-19T15:37:35.401Z,99534.81
2023-05-19T15:40:01.842Z,99533.44
2023-05-19T15:42:28.347Z,99526.66
2023-05-19T15:44:54.939Z,99529.22
2023-05-19T15:47:21.388Z,99528.97
2023-05-19T15:49:47.940Z,99523.41
2023-05-19T15:52:14.441Z,99508.94
2023-05-19T15:54:40.815Z,99508.47
2023-05-19T15:57:07.631Z,99509.41
2023-05-19T15:59:34.110Z,99496.94
2023-05-19T16:02:00.535Z,99509.22
2023-05-19T16:04:27.009Z,99503.88
2023-05-19T16:06:53.474Z,99506.75
2023-05-19T16:09:19.924Z,99505.03
2023-05-19T16:11:46.493Z,99500.94
2023-05-19T16:14:12.945Z,99494.88
2023-05-19T16:16:39.431Z,99499.72
2023-05-19T16:19:05.988Z,99497.28
2023-05-19T16:21:32.429Z,99509.22
2023-05-19T16:23:59.086Z,99513.97
2023-05-19T16:26:25.474Z,99514.81
2023-05-19T16:28:51.924Z,99510.59
2023-05-19T16:31:18.380Z,99520.03
2023-05-19T16:33:45.203Z,99517.34
2023-05-19T16:36:11.600Z,99514.34
2023-05-19T16:38:40.540Z,99510.44
2023-05-19T16:41:07.240Z,99514.22
2023-05-19T16:43:33.876Z,99512.19
2023-05-19T16:46:00.382Z,99507.97
2023-05-19T16:48:27.061Z,99508.69
2023-05-19T16:50:53.464Z,99514.41
2023-05-19T16:53:19.897Z,99502.88
2023-05-19T16:55:46.323Z,99505.44
2023-05-19T16:58:12.680Z,99502.69
2023-05-19T17:00:39.171Z,99501.41
2023-05-19T17:03:05.693Z,99505.69
2023-05-19T17:05:32.171Z,99501.47
2023-05-19T17:07:58.686Z,99508.03
2023-05-19T17:10:25.100Z,99502.25
2023-05-19T17:12:51.694Z,99505.75
2023-05-19T17:15:18.138Z,99510.91
2023-05-19T17:17:44.585Z,99495.75
2023-05-19T17:20:11.367Z,99504.47
2023-05-19T17:22:37.743Z,99505.91
2023-05-19T17:25:04.250Z,99496.00
2023-05-19T17:27:30.735Z,99502.09
2023-05-19T17:29:57.288Z,99506.13
2023-05-19T17:32:23.856Z,99509.91
2023-05-19T17:34:52.398Z,99511.97
2023-05-19T17:37:18.959Z,99515.72
2023-05-19T17:39:45.404Z,99510.88
2023-05-19T17:42:11.896Z,99511.84
2023-05-19T17:44:38.429Z,99505.78
2023-05-19T17:47:08.504Z,99506.03
2023-05-19T17:49:35.146Z,99508.47
2023-05-19T17:52:01.846Z,99515.38
2023-05-19T17:54:28.419Z,99509.94
2023-05-19T17:56:55.405Z,99512.84
2023-05-19T17:59:23.089Z,99509.94
2023-05-19T18:01:49.983Z,99516.22
2023-05-19T18:04:16.808Z,99506.78
2023-05-19T18:06:43.779Z,99519.38
2023-05-19T18:09:10.612Z,99510.91
2023-05-19T18:11:37.311Z,99507.41
2023-05-19T18:14:03.955Z,99507.84
2023-05-19T18:16:32.320Z,99505.56
2023-05-19T18:18:59.605Z,99513.31
2023-05-19T18:21:29.583Z,99514.78
2023-05-19T18:23:56.512Z,99513.06
2023-05-19T18:26:23.663Z,99510.78
2023-05-19T18:28:50.820Z,99511.00
2023-05-19T18:31:18.064Z,99505.09
2023-05-19T18:33:46.341Z,99499.38
2023-05-19T18:36:14.301Z,99504.84
2023-05-19T18:38:41.919Z,99500.34
2023-05-19T18:41:09.046Z,99507.50
2023-05-19T18:43:36.580Z,99510.41
2023-05-19T18:46:03.824Z,99515.00
2023-05-19T18:48:35.465Z,99511.88
2023-05-19T18:51:03.514Z,99512.84
2023-05-19T18:53:30.837Z,99523.84
2023-05-19T18:55:58.036Z,99523.25
2023-05-19T18:58:25.525Z,99528.50
2023-05-19T19:00:55.070Z,99523.41
2023-05-19T19:03:22.508Z,99521.00
2023-05-19T19:05:49.977Z,99535.53
2023-05-19T19:08:17.539Z,99539.56
2023-05-19T19:10:44.743Z,99539.34
2023-05-19T19:13:12.395Z,99540.31
2023-05-19T19:15:39.721Z,99543.56
2023-05-19T19:18:08.233Z,99545.97
2023-05-19T19:20:35.542Z,99544.91
2023-05-19T19:23:03.035Z,99544.53
2023-05-19T19:25:30.560Z,99540.97
2023-05-19T19:27:57.752Z,99547.19
2023-05-19T19:30:25.292Z,99550.19
2023-05-19T19:32:53.241Z,99542.34
2023-05-19T19:35:20.801Z,99553.72
2023-05-19T19:37:48.113Z,99554.56
2023-05-19T19:40:15.352Z,99554.44
2023-05-19T19:42:45.223Z,99552.50
2023-05-19T19:45:15.454Z,99546.13
2023-05-19T19:47:43.084Z,99554.91
2023-05-19T19:50:10.327Z,99551.75
2023-05-19T19:52:38.069Z,99560.22
2023-05-19T19:55:05.931Z,99564.81
2023-05-19T19:57:33.116Z,99566.09
2023-05-19T20:00:00.735Z,99566.94
2023-05-19T20:02:28.575Z,99567.34
2023-05-19T20:04:56.120Z,99573.34
2023-05-19T20:07:23.477Z,99576.34
2023-05-19T20:09:50.645Z,99579.41
2023-05-19T20:12:17.948Z,99575.41
2023-05-19T20:14:45.146Z,99570.94
2023-05-19T20:17:12.389Z,99575.50
2023-05-19T20:19:39.573Z,99559.78
2023-05-19T20:22:09.562Z,99558.94
2023-05-19T20:24:36.732Z,99565.09
2023-05-19T20:27:03.958Z,99566.28
2023-05-19T20:29:31.136Z,99563.97
2023-05-19T20:31:58.327Z,99559.72
2023-05-19T20:34:25.521Z,99553.97
2023-05-19T20:36:53.341Z,99559.50
2023-05-19T20:39:20.444Z,99556.22
2023-05-19T20:41:47.522Z,99562.28
2023-05-19T20:44:14.781Z,99558.13
2023-05-19T20:46:42.180Z,99553.56
2023-05-19T20:49:09.289Z,99559.31
2023-05-19T20:51:36.423Z,99554.63
2023-05-19T20:54:03.636Z,99551.88
2023-05-19T20:56:30.574Z,99551.22
2023-05-19T20:58:57.459Z,99551.06
2023-05-19T21:01:24.202Z,99548.38
2023-05-19T21:03:50.964Z,99549.97
2023-05-19T21:06:17.380Z,99545.06
2023-05-19T21:08:43.739Z,99554.84
2023-05-19T21:11:12.622Z,99554.44
2023-05-19T21:13:39.423Z,99548.16
2023-05-19T21:16:05.876Z,99553.19
2023-05-19T21:18:32.535Z,99549.56
2023-05-19T21:20:58.936Z,99550.63
2023-05-19T21:23:25.384Z,99555.97
2023-05-19T21:25:51.820Z,99556.59
2023-05-19T21:28:18.222Z,99560.81
2023-05-19T21:30:45.004Z,99561.16
2023-05-19T21:33:11.615Z,99554.88
2023-05-19T21:35:38.199Z,99549.56
2023-05-19T21:38:15.775Z,99554.44
2023-05-19T21:40:49.571Z,99552.75
2023-05-19T21:43:15.981Z,99556.13
2023-05-19T21:45:43.054Z,99551.50
2023-05-19T21:48:09.604Z,99567.31
2023-05-19T21:50:36.216Z,99567.31
2023-05-19T21:53:02.720Z,99573.59
2023-05-19T21:55:29.168Z,99556.13
2023-05-19T21:57:55.569Z,99570.38
2023-05-19T22:00:21.943Z,99572.72
2023-05-19T22:02:49.219Z,99562.53
2023-05-19T22:05:15.696Z,99569.56
2023-05-19T22:07:42.106Z,99559.09
2023-05-19T22:10:08.526Z,99561.03
2023-05-19T22:12:34.938Z,99561.97
2023-05-19T22:15:01.397Z,99552.31
2023-05-19T22:17:27.859Z,99556.78
2023-05-19T22:19:54.337Z,99550.59
2023-05-19T22:22:20.725Z,99548.91
2023-05-19T22:24:47.571Z,99548.91
2023-05-19T22:27:14.011Z,99549.13
2023-05-19T22:29:40.555Z,99548.50
2023-05-19T22:32:07.043Z,99559.13
2023-05-19T22:34:33.506Z,99556.78
2023-05-19T22:37:00.003Z,99569.94
2023-05-19T22:39:26.453Z,99564.00
2023-05-19T22:41:52.939Z,99563.88
2023-05-19T22:44:19.416Z,99572.69
2023-05-19T22:46:45.809Z,99569.00
2023-05-19T22:49:12.254Z,99581.38
2023-05-19T22:51:38.695Z,99564.16
2023-05-19T22:54:05.121Z,99568.00
2023-05-19T22:56:31.689Z,99564.28
2023-05-19T22:58:58.138Z,99561.41
2023-05-19T23:01:24.595Z,99550.81
2023-05-19T23:03:51.102Z,99558.97
2023-05-19T23:06:17.509Z,99556.00
2023-05-19T23:08:44.834Z,99568.53
2023-05-19T23:11:11.348Z,99560.03
2023-05-19T23:13:37.921Z,99555.66
2023-05-19T23:16:04.303Z,99559.91
2023-05-19T23:18:30.800Z,99549.09
2023-05-19T23:20:57.211Z,99544.84
2023-05-19T23:23:23.625Z,99544.41
2023-05-19T23:25:50.008Z,99535.50
2023-05-19T23:28:16.543Z,99529.72
2023-05-19T23:30:42.960Z,99535.81
2023-05-19T23:33:09.423Z,99528.81
2023-05-19T23:35:36.045Z,99532.97
2023-05-19T23:38:02.674Z,99529.88
2023-05-19T23:40:29.201Z,99525.41
2023-05-19T23:42:57.912Z,99527.09
2023-05-19T23:45:25.022Z,99533.63
2023-05-19T23:47:51.554Z,99524.56
2023-05-19T23:50:18.182Z,99527.94
2023-05-19T23:52:44.625Z,99530.41
2023-05-19T23:55:11.065Z,99524.88
2023-05-19T23:57:37.499Z,99523.94
